createdAt,value
2023-04-22T00:01:15.687Z,9.32
2023-04-22T00:03:45.105Z,9.32
2023-04-22T00:06:13.864Z,9.36
2023-04-22T00:08:42.218Z,9.38
2023-04-22T00:11:10.361Z,9.29
2023-04-22T00:13:39.217Z,9.31
2023-04-22T00:16:08.195Z,9.26
2023-04-22T00:18:36.620Z,9.20
2023-04-22T00:21:07.950Z,9.27
2023-04-22T00:23:35.807Z,9.23
2023-04-22T00:26:04.174Z,9.24
2023-04-22T00:28:32.742Z,9.25
2023-04-22T00:31:03.820Z,9.17
2023-04-22T00:33:33.014Z,9.07
2023-04-22T00:36:00.916Z,9.08
2023-04-22T00:38:29.194Z,9.07
2023-04-22T00:40:59.343Z,9.13
2023-04-22T00:43:27.852Z,9.11
2023-04-22T00:45:57.855Z,8.99
2023-04-22T00:48:28.694Z,8.94
2023-04-22T00:50:57.288Z,8.96
2023-04-22T00:53:25.612Z,8.94
2023-04-22T00:55:54.296Z,8.85
2023-04-22T00:58:23.867Z,8.84
2023-04-22T01:00:52.895Z,8.77
2023-04-22T01:03:23.134Z,8.75
2023-04-22T01:05:52.361Z,8.68
2023-04-22T01:08:21.478Z,8.78
2023-04-22T01:10:49.979Z,8.77
2023-04-22T01:13:18.170Z,8.73
2023-04-22T01:15:46.771Z,8.67
2023-04-22T01:18:15.929Z,8.69
2023-04-22T01:20:44.413Z,8.69
2023-04-22T01:23:21.733Z,8.69
2023-04-22T01:25:50.437Z,8.63
2023-04-22T01:28:18.475Z,8.63
2023-04-22T01:30:46.990Z,8.65
2023-04-22T01:33:16.387Z,8.69
2023-04-22T01:35:44.908Z,8.65
2023-04-22T01:38:13.789Z,8.67
2023-04-22T01:40:42.284Z,8.64
2023-04-22T01:43:10.638Z,8.60
2023-04-22T01:45:39.156Z,8.60
2023-04-22T01:48:07.574Z,8.58
2023-04-22T01:50:35.865Z,8.54
2023-04-22T01:53:03.805Z,8.59
2023-04-22T01:55:36.375Z,8.49
2023-04-22T01:58:05.814Z,8.56
2023-04-22T02:00:34.386Z,8.59
2023-04-22T02:03:02.508Z,8.58
2023-04-22T02:05:31.073Z,8.63
2023-04-22T02:07:59.335Z,8.63
2023-04-22T02:10:27.460Z,8.64
2023-04-22T02:12:56.339Z,8.63
2023-04-22T02:15:27.518Z,8.60
2023-04-22T02:17:55.761Z,8.61
2023-04-22T02:20:26.007Z,8.58
2023-04-22T02:22:54.378Z,8.56
2023-04-22T02:25:22.214Z,8.55
2023-04-22T02:27:50.538Z,8.46
2023-04-22T02:30:18.882Z,8.51
2023-04-22T02:32:47.800Z,8.47
2023-04-22T02:35:16.320Z,8.45
2023-04-22T02:37:44.386Z,8.45
2023-04-22T02:40:12.838Z,8.38
2023-04-22T02:42:41.000Z,8.40
2023-04-22T02:45:09.485Z,8.35
2023-04-22T02:47:38.554Z,8.37
2023-04-22T02:50:08.165Z,8.43
2023-04-22T02:52:36.167Z,8.41
2023-04-22T02:55:07.205Z,8.49
2023-04-22T02:57:35.774Z,8.47
2023-04-22T03:00:05.181Z,8.45
2023-04-22T03:02:34.027Z,8.47
2023-04-22T03:05:02.438Z,8.47
2023-04-22T03:07:31.393Z,8.36
2023-04-22T03:09:59.788Z,8.46
2023-04-22T03:12:27.834Z,8.53
2023-04-22T03:14:58.602Z,8.61
2023-04-22T03:17:29.860Z,8.71
2023-04-22T03:19:59.409Z,8.75
2023-04-22T03:22:27.616Z,8.67
2023-04-22T03:24:56.506Z,8.75
2023-04-22T03:27:25.281Z,8.84
2023-04-22T03:29:53.765Z,8.88
2023-04-22T03:32:22.070Z,8.84
2023-04-22T03:34:50.218Z,8.92
2023-04-22T03:37:18.977Z,8.91
2023-04-22T03:39:50.194Z,8.96
2023-04-22T03:42:18.401Z,9.03
2023-04-22T03:44:46.439Z,8.97
2023-04-22T03:47:16.517Z,9.03
2023-04-22T03:49:47.981Z,8.88
2023-04-22T03:52:16.656Z,8.97
2023-04-22T03:54:45.067Z,8.89
2023-04-22T03:57:13.123Z,8.96
2023-04-22T03:59:41.517Z,8.98
2023-04-22T04:02:12.550Z,9.10
2023-04-22T04:04:40.861Z,9.05
2023-04-22T04:07:09.090Z,9.09
2023-04-22T04:09:37.863Z,9.03
2023-04-22T04:12:06.262Z,8.97
2023-04-22T04:14:34.383Z,9.05
2023-04-22T04:17:04.002Z,9.02
2023-04-22T04:19:32.395Z,9.15
2023-04-22T04:22:01.958Z,9.23
2023-04-22T04:24:30.781Z,9.33
2023-04-22T04:26:59.648Z,9.32
2023-04-22T04:29:28.347Z,9.32
2023-04-22T04:31:56.554Z,9.43
2023-04-22T04:34:26.291Z,9.52
2023-04-22T04:36:55.087Z,9.68
2023-04-22T04:39:23.800Z,9.78
2023-04-22T04:41:55.439Z,9.81
2023-04-22T04:44:23.983Z,9.79
2023-04-22T04:46:58.156Z,9.89
2023-04-22T04:49:26.838Z,9.91
2023-04-22T04:51:57.321Z,9.91
2023-04-22T04:54:25.805Z,9.87
2023-04-22T04:56:54.194Z,9.85
2023-04-22T04:59:22.655Z,9.67
2023-04-22T05:01:51.246Z,9.66
2023-04-22T05:04:19.740Z,9.83
2023-04-22T05:06:47.914Z,9.93
2023-04-22T05:09:16.083Z,10.08
2023-04-22T05:11:44.232Z,10.21
2023-04-22T05:14:12.271Z,10.43
2023-04-22T05:16:41.541Z,10.64
2023-04-22T05:19:10.656Z,10.79
2023-04-22T05:21:38.916Z,10.80
2023-04-22T05:24:07.462Z,10.78
2023-04-22T05:26:37.104Z,11.14
2023-04-22T05:29:05.293Z,11.24
2023-04-22T05:31:34.278Z,11.21
2023-04-22T05:34:02.459Z,11.37
2023-04-22T05:36:31.446Z,11.46
2023-04-22T05:39:02.374Z,11.72
2023-04-22T05:41:30.775Z,11.66
2023-04-22T05:43:58.913Z,11.37
2023-04-22T05:46:27.146Z,11.39
2023-04-22T05:48:56.488Z,11.38
2023-04-22T05:51:27.521Z,11.45
2023-04-22T05:53:56.544Z,11.43
2023-04-22T05:56:26.810Z,11.42
2023-04-22T05:58:55.001Z,11.52
2023-04-22T06:01:22.930Z,12.06
2023-04-22T06:03:51.981Z,12.11
2023-04-22T06:06:20.356Z,11.64
2023-04-22T06:08:48.815Z,11.28
2023-04-22T06:11:20.800Z,11.44
2023-04-22T06:13:49.224Z,11.69
2023-04-22T06:16:17.303Z,11.85
2023-04-22T06:18:45.395Z,11.93
2023-04-22T06:21:13.582Z,12.46
2023-04-22T06:23:43.106Z,13.21
2023-04-22T06:26:11.310Z,13.72
2023-04-22T06:28:39.934Z,14.10
2023-04-22T06:31:08.270Z,13.94
2023-04-22T06:33:39.141Z,13.45
2023-04-22T06:36:07.659Z,13.19
2023-04-22T06:38:35.901Z,12.86
2023-04-22T06:41:05.242Z,12.40
2023-04-22T06:43:33.532Z,12.34
2023-04-22T06:46:02.203Z,12.69
2023-04-22T06:48:30.608Z,12.82
2023-04-22T06:50:58.541Z,12.76
2023-04-22T06:53:26.863Z,12.35
2023-04-22T06:55:55.219Z,12.16
2023-04-22T06:58:23.331Z,12.10
2023-04-22T07:00:51.333Z,11.88
2023-04-22T07:03:19.572Z,11.81
2023-04-22T07:05:48.852Z,12.05
2023-04-22T07:08:20.063Z,12.47
2023-04-22T07:10:48.018Z,13.09
2023-04-22T07:13:16.379Z,13.46
2023-04-22T07:15:46.581Z,13.37
2023-04-22T07:18:15.246Z,13.34
2023-04-22T07:20:43.442Z,13.18
2023-04-22T07:23:11.502Z,13.17
2023-04-22T07:25:42.551Z,13.78
2023-04-22T07:28:10.823Z,14.31
2023-04-22T07:30:38.818Z,13.96
2023-04-22T07:33:09.691Z,13.32
2023-04-22T07:35:37.889Z,12.93
2023-04-22T07:38:07.277Z,12.67
2023-04-22T07:40:36.336Z,12.52
2023-04-22T07:43:06.104Z,12.46
2023-04-22T07:45:34.740Z,12.29
2023-04-22T07:48:04.841Z,12.38
2023-04-22T07:50:33.307Z,12.41
2023-04-22T07:53:01.441Z,12.37
2023-04-22T07:55:29.571Z,11.99
2023-04-22T07:57:58.140Z,11.50
2023-04-22T08:00:25.951Z,11.21
2023-04-22T08:02:55.387Z,11.08
2023-04-22T08:05:23.780Z,11.09
2023-04-22T08:07:52.037Z,11.10
2023-04-22T08:10:20.138Z,11.12
2023-04-22T08:12:50.356Z,11.31
2023-04-22T08:15:18.750Z,11.40
2023-04-22T08:17:47.314Z,11.52
2023-04-22T08:20:15.921Z,11.60
2023-04-22T08:22:46.001Z,11.70
2023-04-22T08:25:14.038Z,11.73
2023-04-22T08:27:42.317Z,11.94
2023-04-22T08:30:11.812Z,12.38
2023-04-22T08:32:40.218Z,12.88
2023-04-22T08:35:08.873Z,13.28
2023-04-22T08:37:37.214Z,13.66
2023-04-22T08:40:07.358Z,13.81
2023-04-22T08:42:36.649Z,13.89
2023-04-22T08:45:06.184Z,14.03
2023-04-22T08:47:38.765Z,13.69
2023-04-22T08:50:10.291Z,13.62
2023-04-22T08:52:38.448Z,13.80
2023-04-22T08:55:07.137Z,14.11
2023-04-22T08:57:40.687Z,14.29
2023-04-22T09:00:10.060Z,14.51
2023-04-22T09:02:39.125Z,14.17
2023-04-22T09:05:10.027Z,14.20
2023-04-22T09:07:41.433Z,14.51
2023-04-22T09:10:12.487Z,15.01
2023-04-22T09:12:41.836Z,15.68
2023-04-22T09:15:12.177Z,16.17
2023-04-22T09:17:41.890Z,16.08
2023-04-22T09:20:10.651Z,15.29
2023-04-22T09:22:49.285Z,14.76
2023-04-22T09:25:27.883Z,14.81
2023-04-22T09:27:57.706Z,15.33
2023-04-22T09:30:28.235Z,15.78
2023-04-22T09:33:01.833Z,16.39
2023-04-22T09:35:41.566Z,16.35
2023-04-22T09:38:11.530Z,16.60
2023-04-22T09:40:44.536Z,16.09
2023-04-22T09:43:18.731Z,15.86
2023-04-22T09:45:47.040Z,15.43
2023-04-22T09:48:19.147Z,15.24
2023-04-22T09:50:49.990Z,15.20
2023-04-22T09:53:22.029Z,15.30
2023-04-22T09:55:52.991Z,15.39
2023-04-22T09:58:28.165Z,15.46
2023-04-22T10:00:59.550Z,15.84
2023-04-22T10:03:27.695Z,16.18
2023-04-22T10:05:56.134Z,16.23
2023-04-22T10:08:24.953Z,16.30
2023-04-22T10:10:54.314Z,16.27
2023-04-22T10:13:23.077Z,15.77
2023-04-22T10:15:53.765Z,15.28
2023-04-22T10:18:30.344Z,14.80
2023-04-22T10:20:59.569Z,14.60
2023-04-22T10:23:32.965Z,14.41
2023-04-22T10:26:01.693Z,14.36
2023-04-22T10:28:31.268Z,14.37
2023-04-22T10:31:07.089Z,14.30
2023-04-22T10:33:41.493Z,14.39
2023-04-22T10:36:19.520Z,14.62
2023-04-22T10:38:56.331Z,14.95
2023-04-22T10:41:25.946Z,14.75
2023-04-22T10:43:59.029Z,14.60
2023-04-22T10:46:40.518Z,14.63
2023-04-22T10:49:13.579Z,14.79
2023-04-22T10:51:49.664Z,14.92
2023-04-22T10:54:32.208Z,15.33
2023-04-22T10:57:17.037Z,15.51
2023-04-22T10:59:58.122Z,15.78
2023-04-22T11:02:26.677Z,16.09
2023-04-22T11:05:25.961Z,15.89
2023-04-22T11:07:58.732Z,15.98
2023-04-22T11:10:36.146Z,16.26
2023-04-22T11:13:04.372Z,16.33
2023-04-22T11:15:33.481Z,16.36
2023-04-22T11:18:02.512Z,16.23
2023-04-22T11:20:31.642Z,15.80
2023-04-22T11:23:00.178Z,15.38
2023-04-22T11:25:30.962Z,14.91
2023-04-22T11:27:59.305Z,14.11
2023-04-22T11:30:31.916Z,13.48
2023-04-22T11:33:01.338Z,13.06
2023-04-22T11:35:35.446Z,13.13
2023-04-22T11:38:05.623Z,13.27
2023-04-22T11:40:46.555Z,13.72
2023-04-22T11:43:15.527Z,14.04
2023-04-22T11:45:44.099Z,14.34
2023-04-22T11:48:13.055Z,14.65
2023-04-22T11:50:44.793Z,14.85
2023-04-22T11:53:24.487Z,14.69
2023-04-22T11:55:53.225Z,14.54
2023-04-22T11:58:26.934Z,14.60
2023-04-22T12:00:56.753Z,14.64
2023-04-22T12:03:27.034Z,14.95
2023-04-22T12:05:56.772Z,15.42
2023-04-22T12:08:26.695Z,15.91
2023-04-22T12:10:58.737Z,15.95
2023-04-22T12:13:46.559Z,16.10
2023-04-22T12:16:21.605Z,16.10
2023-04-22T12:18:54.616Z,15.98
2023-04-22T12:21:30.071Z,16.09
2023-04-22T12:24:05.983Z,16.42
2023-04-22T12:26:34.816Z,16.65
2023-04-22T12:29:34.499Z,16.52
2023-04-22T12:32:04.447Z,16.21
2023-04-22T12:34:32.592Z,16.03
2023-04-22T12:37:00.848Z,15.74
2023-04-22T12:39:29.045Z,15.46
2023-04-22T12:41:58.280Z,15.07
2023-04-22T12:44:26.672Z,14.85
2023-04-22T12:46:55.072Z,14.78
2023-04-22T12:49:23.354Z,14.70
2023-04-22T12:51:51.882Z,14.79
2023-04-22T12:54:21.513Z,14.85
2023-04-22T12:56:49.704Z,14.91
2023-04-22T12:59:17.895Z,14.97
2023-04-22T13:01:46.063Z,14.73
2023-04-22T13:04:14.421Z,14.59
2023-04-22T13:06:44.253Z,14.39
2023-04-22T13:09:13.382Z,14.15
2023-04-22T13:11:41.680Z,13.86
2023-04-22T13:14:10.151Z,13.53
2023-04-22T13:16:38.308Z,13.03
2023-04-22T13:19:06.831Z,12.49
2023-04-22T13:21:35.131Z,12.21
2023-04-22T13:24:05.872Z,12.09
2023-04-22T13:26:38.242Z,12.20
2023-04-22T13:29:11.499Z,12.11
2023-04-22T13:31:44.041Z,11.97
2023-04-22T13:34:15.906Z,11.81
2023-04-22T13:36:44.644Z,11.68
2023-04-22T13:39:13.046Z,11.62
2023-04-22T13:41:43.781Z,11.51
2023-04-22T13:44:13.094Z,11.29
2023-04-22T13:46:41.973Z,11.21
2023-04-22T13:49:10.903Z,11.13
2023-04-22T13:51:40.001Z,11.02
2023-04-22T13:54:08.173Z,11.03
2023-04-22T13:56:39.767Z,10.94
2023-04-22T13:59:08.858Z,10.98
2023-04-22T14:01:38.144Z,11.08
2023-04-22T14:04:06.734Z,11.21
2023-04-22T14:06:36.026Z,11.30
2023-04-22T14:09:09.941Z,11.44
2023-04-22T14:11:38.353Z,11.44
2023-04-22T14:14:06.856Z,11.63
2023-04-22T14:16:43.348Z,11.69
2023-04-22T14:19:11.736Z,11.78
2023-04-22T14:21:40.222Z,11.90
2023-04-22T14:24:08.510Z,11.89
2023-04-22T14:26:36.711Z,11.80
2023-04-22T14:29:04.994Z,11.74
2023-04-22T14:31:41.374Z,11.69
2023-04-22T14:34:10.152Z,11.67
2023-04-22T14:36:38.670Z,11.79
2023-04-22T14:39:06.786Z,11.83
2023-04-22T14:41:35.395Z,11.79
2023-04-22T14:44:03.840Z,11.67
2023-04-22T14:46:32.208Z,11.54
2023-04-22T14:49:00.496Z,11.52
2023-04-22T14:51:29.440Z,11.52
2023-04-22T14:53:57.980Z,11.54
2023-04-22T14:56:26.153Z,11.61
2023-04-22T14:58:54.238Z,11.73
2023-04-22T15:01:23.238Z,11.87
2023-04-22T15:03:52.575Z,12.04
2023-04-22T15:06:23.639Z,12.17
2023-04-22T15:08:52.094Z,12.38
2023-04-22T15:11:20.397Z,12.57
2023-04-22T15:13:48.536Z,12.63
2023-04-22T15:16:16.863Z,12.60
2023-04-22T15:18:45.066Z,12.61
2023-04-22T15:21:14.207Z,12.69
2023-04-22T15:23:42.715Z,12.71
2023-04-22T15:26:11.290Z,12.66
2023-04-22T15:28:39.554Z,12.61
2023-04-22T15:31:07.973Z,12.47
2023-04-22T15:33:36.123Z,12.25
2023-04-22T15:36:07.286Z,12.11
2023-04-22T15:38:36.556Z,11.96
2023-04-22T15:41:05.594Z,11.84
2023-04-22T15:43:34.336Z,11.81
2023-04-22T15:46:02.606Z,11.77
2023-04-22T15:48:31.683Z,11.74
2023-04-22T15:51:00.189Z,11.74
2023-04-22T15:53:30.393Z,11.71
2023-04-22T15:55:58.862Z,11.69
2023-04-22T15:58:27.003Z,11.57
2023-04-22T16:01:04.413Z,11.46
2023-04-22T16:03:39.940Z,11.37
2023-04-22T16:06:08.082Z,11.30
2023-04-22T16:08:36.306Z,11.26
2023-04-22T16:11:05.761Z,11.28
2023-04-22T16:13:34.137Z,11.33
2023-04-22T16:16:07.362Z,11.32
2023-04-22T16:18:36.091Z,11.27
2023-04-22T16:21:05.247Z,11.19
2023-04-22T16:23:35.254Z,11.08
2023-04-22T16:26:10.173Z,10.96
2023-04-22T16:28:38.485Z,10.88
2023-04-22T16:31:07.217Z,10.81
2023-04-22T16:33:39.623Z,10.72
2023-04-22T16:36:09.611Z,10.68
2023-04-22T16:38:38.348Z,10.59
2023-04-22T16:41:06.953Z,10.46
2023-04-22T16:43:35.631Z,10.35
2023-04-22T16:46:04.297Z,10.25
2023-04-22T16:48:33.181Z,10.20
2023-04-22T16:51:04.128Z,10.14
2023-04-22T16:53:32.467Z,10.08
2023-04-22T16:56:01.264Z,10.00
2023-04-22T16:58:29.979Z,9.96
2023-04-22T17:01:00.890Z,9.93
2023-04-22T17:03:29.484Z,9.89
2023-04-22T17:05:57.899Z,9.87
2023-04-22T17:08:26.330Z,9.83
2023-04-22T17:10:54.378Z,9.81
2023-04-22T17:13:22.561Z,9.86
2023-04-22T17:15:51.742Z,9.99
2023-04-22T17:18:20.091Z,10.12
2023-04-22T17:20:49.709Z,10.17
2023-04-22T17:23:18.241Z,10.15
2023-04-22T17:25:49.004Z,10.13
2023-04-22T17:28:17.371Z,10.18
2023-04-22T17:30:50.092Z,10.28
2023-04-22T17:33:18.407Z,10.44
2023-04-22T17:35:46.500Z,10.58
2023-04-22T17:38:14.855Z,10.69
2023-04-22T17:40:44.071Z,10.72
2023-04-22T17:43:12.436Z,10.71
2023-04-22T17:45:45.496Z,10.63
2023-04-22T17:48:13.536Z,10.53
2023-04-22T17:50:43.784Z,10.42
2023-04-22T17:53:13.643Z,10.28
2023-04-22T17:55:48.128Z,10.13
2023-04-22T17:58:16.618Z,9.94
2023-04-22T18:00:45.910Z,9.81
2023-04-22T18:03:14.719Z,9.71
2023-04-22T18:05:47.211Z,9.64
2023-04-22T18:08:15.455Z,9.55
2023-04-22T18:10:43.787Z,9.50
2023-04-22T18:13:12.152Z,9.47
2023-04-22T18:15:40.521Z,9.42
2023-04-22T18:18:08.721Z,9.34
2023-04-22T18:20:37.245Z,9.30
2023-04-22T18:23:05.617Z,9.29
2023-04-22T18:25:35.921Z,9.24
2023-04-22T18:28:04.431Z,9.18
2023-04-22T18:30:32.870Z,9.12
2023-04-22T18:33:04.489Z,9.07
2023-04-22T18:35:34.008Z,8.98
2023-04-22T18:38:02.133Z,8.94
2023-04-22T18:40:30.554Z,8.88
2023-04-22T18:42:59.075Z,8.83
2023-04-22T18:45:27.084Z,8.79
2023-04-22T18:47:57.671Z,8.75
2023-04-22T18:50:25.949Z,8.74
2023-04-22T18:52:54.178Z,8.68
2023-04-22T18:55:22.152Z,8.59
2023-04-22T18:57:50.168Z,8.52
2023-04-22T19:00:23.987Z,8.49
2023-04-22T19:02:53.557Z,8.43
2023-04-22T19:05:50.459Z,8.39
2023-04-22T19:08:18.491Z,8.36
2023-04-22T19:10:48.165Z,8.33
2023-04-22T19:13:28.500Z,8.36
2023-04-22T19:15:58.831Z,8.33
2023-04-22T19:18:27.273Z,8.34
2023-04-22T19:20:57.506Z,8.35
2023-04-22T19:23:26.224Z,8.31
2023-04-22T19:25:54.542Z,8.27
2023-04-22T19:28:26.600Z,8.25
2023-04-22T19:30:55.826Z,8.22
2023-04-22T19:33:24.006Z,8.22
2023-04-22T19:35:52.094Z,8.21
2023-04-22T19:38:22.604Z,8.23
2023-04-22T19:40:51.365Z,8.20
2023-04-22T19:43:22.771Z,8.17
2023-04-22T19:45:51.231Z,8.17
2023-04-22T19:48:20.691Z,8.13
2023-04-22T19:50:49.550Z,8.12
2023-04-22T19:53:19.056Z,8.08
2023-04-22T19:55:47.613Z,8.03
2023-04-22T19:58:17.167Z,7.99
2023-04-22T20:00:48.542Z,7.95
2023-04-22T20:03:17.068Z,7.89
2023-04-22T20:05:45.625Z,7.89
2023-04-22T20:08:16.277Z,7.85
2023-04-22T20:10:46.317Z,7.88
2023-04-22T20:13:14.698Z,7.82
2023-04-22T20:15:43.233Z,7.79
2023-04-22T20:18:11.738Z,7.78
2023-04-22T20:20:48.484Z,7.79
2023-04-22T20:23:19.068Z,7.82
2023-04-22T20:25:50.321Z,7.76
2023-04-22T20:28:19.297Z,7.72
2023-04-22T20:30:48.248Z,7.69
2023-04-22T20:33:18.418Z,7.67
2023-04-22T20:35:49.961Z,7.64
2023-04-22T20:38:19.797Z,7.60
2023-04-22T20:40:48.389Z,7.60
2023-04-22T20:43:16.870Z,7.58
2023-04-22T20:45:44.861Z,7.68
2023-04-22T20:48:16.061Z,7.71
2023-04-22T20:50:47.707Z,7.77
2023-04-22T20:53:16.036Z,7.83
2023-04-22T20:55:44.560Z,7.84
2023-04-22T20:58:12.998Z,7.86
2023-04-22T21:00:41.900Z,7.87
2023-04-22T21:03:10.577Z,7.88
2023-04-22T21:05:43.913Z,7.88
2023-04-22T21:08:21.934Z,7.93
2023-04-22T21:10:51.186Z,7.95
2023-04-22T21:13:24.821Z,7.94
2023-04-22T21:15:59.944Z,7.97
2023-04-22T21:18:30.174Z,8.01
2023-04-22T21:21:03.442Z,7.99
2023-04-22T21:23:34.190Z,8.03
2023-04-22T21:26:04.465Z,8.00
2023-04-22T21:28:33.441Z,7.98
2023-04-22T21:31:02.031Z,7.93
2023-04-22T21:33:33.341Z,7.97
2023-04-22T21:36:01.620Z,7.95
2023-04-22T21:38:30.162Z,7.95
2023-04-22T21:40:58.336Z,8.03
2023-04-22T21:43:26.621Z,8.07
2023-04-22T21:45:55.492Z,8.12
2023-04-22T21:48:23.749Z,8.16
2023-04-22T21:50:52.208Z,8.25
2023-04-22T21:53:21.044Z,8.32
2023-04-22T21:55:49.065Z,8.36
2023-04-22T21:58:17.264Z,8.39
2023-04-22T22:00:45.654Z,8.45
2023-04-22T22:03:15.229Z,8.45
2023-04-22T22:05:44.013Z,8.52
2023-04-22T22:08:14.370Z,8.57
2023-04-22T22:10:43.635Z,8.60
2023-04-22T22:13:11.668Z,8.57
2023-04-22T22:15:40.113Z,8.80
2023-04-22T22:18:08.160Z,8.81
2023-04-22T22:20:37.161Z,8.85
2023-04-22T22:23:05.485Z,8.90
2023-04-22T22:25:33.753Z,8.81
2023-04-22T22:28:05.141Z,8.80
2023-04-22T22:30:33.215Z,8.79
2023-04-22T22:33:01.316Z,8.73
2023-04-22T22:35:29.813Z,8.71
2023-04-22T22:37:57.931Z,8.74
2023-04-22T22:40:26.045Z,8.76
2023-04-22T22:42:54.806Z,8.79
2023-04-22T22:45:25.403Z,8.78
2023-04-22T22:47:56.835Z,8.72
2023-04-22T22:50:25.318Z,8.76
2023-04-22T22:52:53.978Z,8.77
2023-04-22T22:55:22.069Z,8.77
2023-04-22T22:57:50.330Z,8.75
2023-04-22T23:00:18.949Z,8.75
2023-04-22T23:02:47.721Z,8.75
2023-04-22T23:05:15.678Z,8.70
2023-04-22T23:07:46.555Z,8.67
2023-04-22T23:10:14.782Z,8.62
2023-04-22T23:12:43.288Z,8.57
2023-04-22T23:15:12.107Z,8.56
2023-04-22T23:17:40.672Z,8.51
2023-04-22T23:20:12.566Z,8.44
2023-04-22T23:22:41.287Z,8.37
2023-04-22T23:25:10.430Z,8.31
2023-04-22T23:27:39.164Z,8.29
2023-04-22T23:30:08.170Z,8.32
2023-04-22T23:32:40.154Z,8.36
2023-04-22T23:35:09.408Z,8.34
2023-04-22T23:37:38.554Z,8.34
2023-04-22T23:40:07.651Z,8.35
2023-04-22T23:42:37.817Z,8.43
2023-04-22T23:45:06.316Z,8.49
2023-04-22T23:47:46.834Z,8.59
2023-04-22T23:50:16.541Z,8.68
2023-04-22T23:52:45.400Z,8.80
2023-04-22T23:55:17.394Z,8.87
2023-04-22T23:57:45.844Z,8.92
